sensor_id;sensor_type;location;lat;lon;timestamp;P1;durP1;ratioP1;P2;durP2;ratioP2
1412;SDS011;701;52.526;13.408;2023-03-19T00:02:19;22.00;;;9.07;;
1412;SDS011;701;52.526;13.408;2023-03-19T00:04:45;17.55;;;8.77;;
1412;SDS011;701;52.526;13.408;2023-03-19T00:07:11;19.05;;;8.57;;
1412;SDS011;701;52.526;13.408;2023-03-19T00:09:38;16.92;;;8.70;;
1412;SDS011;701;52.526;13.408;2023-03-19T00:12:04;16.63;;;9.15;;
1412;SDS011;701;52.526;13.408;2023-03-19T00:14:30;17.65;;;8.77;;
1412;SDS011;701;52.526;13.408;2023-03-19T00:16:56;18.00;;;9.55;;
1412;SDS011;701;52.526;13.408;2023-03-19T00:19:22;23.07;;;9.00;;
1412;SDS011;701;52.526;13.408;2023-03-19T00:21:48;17.92;;;9.07;;
1412;SDS011;701;52.526;13.408;2023-03-19T00:24:14;21.17;;;9.40;;
1412;SDS011;701;52.526;13.408;2023-03-19T00:26:41;19.15;;;9.00;;
1412;SDS011;701;52.526;13.408;2023-03-19T00:29:08;19.20;;;9.00;;
1412;SDS011;701;52.526;13.408;2023-03-19T00:31:37;16.63;;;8.63;;
1412;SDS011;701;52.526;13.408;2023-03-19T00:34:04;19.40;;;9.30;;
1412;SDS011;701;52.526;13.408;2023-03-19T00:36:30;17.50;;;9.05;;
1412;SDS011;701;52.526;13.408;2023-03-19T00:38:57;19.85;;;9.13;;
1412;SDS011;701;52.526;13.408;2023-03-19T00:41:23;20.75;;;9.73;;
1412;SDS011;701;52.526;13.408;2023-03-19T00:43:53;22.52;;;10.18;;
1412;SDS011;701;52.526;13.408;2023-03-19T00:46:20;21.98;;;9.85;;
1412;SDS011;701;52.526;13.408;2023-03-19T00:48:47;18.40;;;9.38;;
1412;SDS011;701;52.526;13.408;2023-03-19T00:51:15;21.00;;;9.25;;
1412;SDS011;701;52.526;13.408;2023-03-19T00:53:41;18.95;;;10.00;;
1412;SDS011;701;52.526;13.408;2023-03-19T00:56:09;17.50;;;9.75;;
1412;SDS011;701;52.526;13.408;2023-03-19T00:58:36;21.55;;;10.02;;
1412;SDS011;701;52.526;13.408;2023-03-19T01:01:08;19.30;;;10.20;;
1412;SDS011;701;52.526;13.408;2023-03-19T01:03:37;19.73;;;10.55;;
1412;SDS011;701;52.526;13.408;2023-03-19T01:06:03;20.73;;;10.60;;
1412;SDS011;701;52.526;13.408;2023-03-19T01:08:38;25.35;;;10.45;;
1412;SDS011;701;52.526;13.408;2023-03-19T01:11:08;21.02;;;10.60;;
1412;SDS011;701;52.526;13.408;2023-03-19T01:13:39;19.85;;;10.13;;
1412;SDS011;701;52.526;13.408;2023-03-19T01:16:06;19.42;;;9.68;;
1412;SDS011;701;52.526;13.408;2023-03-19T01:18:32;19.38;;;10.43;;
1412;SDS011;701;52.526;13.408;2023-03-19T01:20:58;20.40;;;10.70;;
1412;SDS011;701;52.526;13.408;2023-03-19T01:23:25;20.35;;;10.68;;
1412;SDS011;701;52.526;13.408;2023-03-19T01:25:52;21.95;;;10.65;;
1412;SDS011;701;52.526;13.408;2023-03-19T01:28:17;23.17;;;10.77;;
1412;SDS011;701;52.526;13.408;2023-03-19T01:30:43;20.83;;;9.83;;
1412;SDS011;701;52.526;13.408;2023-03-19T01:33:39;20.38;;;10.55;;
1412;SDS011;701;52.526;13.408;2023-03-19T01:36:10;21.02;;;10.48;;
1412;SDS011;701;52.526;13.408;2023-03-19T01:38:48;20.48;;;10.07;;
1412;SDS011;701;52.526;13.408;2023-03-19T01:41:14;20.10;;;11.00;;
1412;SDS011;701;52.526;13.408;2023-03-19T01:43:40;18.70;;;10.25;;
1412;SDS011;701;52.526;13.408;2023-03-19T01:46:13;19.40;;;10.80;;
1412;SDS011;701;52.526;13.408;2023-03-19T01:49:11;18.05;;;10.13;;
1412;SDS011;701;52.526;13.408;2023-03-19T01:51:40;19.08;;;10.77;;
1412;SDS011;701;52.526;13.408;2023-03-19T01:54:34;18.10;;;10.07;;
1412;SDS011;701;52.526;13.408;2023-03-19T01:57:19;20.58;;;10.77;;
1412;SDS011;701;52.526;13.408;2023-03-19T02:00:07;19.80;;;10.73;;
1412;SDS011;701;52.526;13.408;2023-03-19T02:02:43;22.42;;;10.60;;
1412;SDS011;701;52.526;13.408;2023-03-19T02:05:27;23.02;;;10.38;;
1412;SDS011;701;52.526;13.408;2023-03-19T02:08:02;19.00;;;10.43;;
1412;SDS011;701;52.526;13.408;2023-03-19T02:10:31;22.00;;;10.60;;
1412;SDS011;701;52.526;13.408;2023-03-19T02:12:58;23.13;;;10.90;;
1412;SDS011;701;52.526;13.408;2023-03-19T02:15:24;20.98;;;10.65;;
1412;SDS011;701;52.526;13.408;2023-03-19T02:17:51;18.17;;;10.30;;
1412;SDS011;701;52.526;13.408;2023-03-19T02:26:16;23.40;;;10.38;;
1412;SDS011;701;52.526;13.408;2023-03-19T02:28:47;20.38;;;10.70;;
1412;SDS011;701;52.526;13.408;2023-03-19T02:31:19;19.40;;;9.88;;
1412;SDS011;701;52.526;13.408;2023-03-19T02:36:36;18.17;;;10.05;;
1412;SDS011;701;52.526;13.408;2023-03-19T02:39:06;22.00;;;10.68;;
1412;SDS011;701;52.526;13.408;2023-03-19T02:41:39;24.23;;;11.00;;
1412;SDS011;701;52.526;13.408;2023-03-19T02:44:06;20.88;;;11.05;;
1412;SDS011;701;52.526;13.408;2023-03-19T02:46:35;19.75;;;10.18;;
1412;SDS011;701;52.526;13.408;2023-03-19T02:49:02;20.63;;;10.60;;
1412;SDS011;701;52.526;13.408;2023-03-19T02:51:28;20.55;;;10.45;;
1412;SDS011;701;52.526;13.408;2023-03-19T02:53:57;20.92;;;10.82;;
1412;SDS011;701;52.526;13.408;2023-03-19T02:56:25;20.50;;;10.05;;
1412;SDS011;701;52.526;13.408;2023-03-19T02:58:50;22.77;;;10.68;;
1412;SDS011;701;52.526;13.408;2023-03-19T03:01:16;19.47;;;9.63;;
1412;SDS011;701;52.526;13.408;2023-03-19T03:03:43;21.00;;;10.70;;
1412;SDS011;701;52.526;13.408;2023-03-19T03:06:08;20.45;;;10.50;;
1412;SDS011;701;52.526;13.408;2023-03-19T03:08:34;20.73;;;10.60;;
1412;SDS011;701;52.526;13.408;2023-03-19T03:11:01;22.17;;;10.93;;
1412;SDS011;701;52.526;13.408;2023-03-19T03:13:26;22.15;;;10.85;;
1412;SDS011;701;52.526;13.408;2023-03-19T03:15:52;23.77;;;10.70;;
1412;SDS011;701;52.526;13.408;2023-03-19T03:18:18;19.00;;;10.40;;
1412;SDS011;701;52.526;13.408;2023-03-19T03:20:44;20.20;;;10.75;;
1412;SDS011;701;52.526;13.408;2023-03-19T03:23:11;21.57;;;10.27;;
1412;SDS011;701;52.526;13.408;2023-03-19T03:25:37;20.20;;;10.02;;
1412;SDS011;701;52.526;13.408;2023-03-19T03:28:02;22.25;;;10.55;;
1412;SDS011;701;52.526;13.408;2023-03-19T03:30:28;23.55;;;11.13;;
1412;SDS011;701;52.526;13.408;2023-03-19T03:32:54;18.48;;;10.23;;
1412;SDS011;701;52.526;13.408;2023-03-19T03:35:19;24.63;;;10.33;;
1412;SDS011;701;52.526;13.408;2023-03-19T03:37:50;21.27;;;10.80;;
1412;SDS011;701;52.526;13.408;2023-03-19T03:40:16;19.08;;;10.15;;
1412;SDS011;701;52.526;13.408;2023-03-19T03:42:42;19.73;;;10.50;;
1412;SDS011;701;52.526;13.408;2023-03-19T03:45:09;21.17;;;10.55;;
1412;SDS011;701;52.526;13.408;2023-03-19T03:47:37;21.45;;;9.70;;
1412;SDS011;701;52.526;13.408;2023-03-19T03:50:04;22.40;;;11.43;;
1412;SDS011;701;52.526;13.408;2023-03-19T03:52:30;19.77;;;9.73;;
1412;SDS011;701;52.526;13.408;2023-03-19T03:54:58;19.08;;;10.10;;
1412;SDS011;701;52.526;13.408;2023-03-19T03:57:25;19.13;;;10.27;;
1412;SDS011;701;52.526;13.408;2023-03-19T03:59:52;22.83;;;10.98;;
1412;SDS011;701;52.526;13.408;2023-03-19T04:02:18;19.90;;;11.27;;
1412;SDS011;701;52.526;13.408;2023-03-19T04:04:45;19.45;;;10.60;;
1412;SDS011;701;52.526;13.408;2023-03-19T04:07:12;21.65;;;10.88;;
1412;SDS011;701;52.526;13.408;2023-03-19T04:09:42;22.08;;;10.13;;
1412;SDS011;701;52.526;13.408;2023-03-19T04:12:08;19.77;;;10.50;;
1412;SDS011;701;52.526;13.408;2023-03-19T04:14:35;19.38;;;10.70;;
1412;SDS011;701;52.526;13.408;2023-03-19T04:17:01;22.17;;;10.88;;
1412;SDS011;701;52.526;13.408;2023-03-19T04:19:27;22.58;;;11.00;;
1412;SDS011;701;52.526;13.408;2023-03-19T04:21:53;23.02;;;10.93;;
1412;SDS011;701;52.526;13.408;2023-03-19T04:24:19;21.92;;;11.13;;
1412;SDS011;701;52.526;13.408;2023-03-19T04:26:44;20.77;;;10.70;;
1412;SDS011;701;52.526;13.408;2023-03-19T04:29:13;23.50;;;11.50;;
1412;SDS011;701;52.526;13.408;2023-03-19T04:31:38;24.77;;;11.73;;
1412;SDS011;701;52.526;13.408;2023-03-19T04:34:05;19.70;;;10.53;;
1412;SDS011;701;52.526;13.408;2023-03-19T04:36:31;23.17;;;11.70;;
1412;SDS011;701;52.526;13.408;2023-03-19T04:38:57;19.50;;;11.10;;
1412;SDS011;701;52.526;13.408;2023-03-19T04:41:23;21.38;;;11.02;;
1412;SDS011;701;52.526;13.408;2023-03-19T04:44:02;20.10;;;10.63;;
1412;SDS011;701;52.526;13.408;2023-03-19T04:46:28;20.45;;;11.45;;
1412;SDS011;701;52.526;13.408;2023-03-19T04:48:54;23.58;;;11.27;;
1412;SDS011;701;52.526;13.408;2023-03-19T04:51:20;22.45;;;10.85;;
1412;SDS011;701;52.526;13.408;2023-03-19T04:53:46;20.73;;;11.02;;
1412;SDS011;701;52.526;13.408;2023-03-19T04:56:13;20.30;;;11.45;;
1412;SDS011;701;52.526;13.408;2023-03-19T04:58:42;21.27;;;11.23;;
1412;SDS011;701;52.526;13.408;2023-03-19T05:01:08;21.70;;;11.30;;
1412;SDS011;701;52.526;13.408;2023-03-19T05:03:53;23.25;;;11.38;;
1412;SDS011;701;52.526;13.408;2023-03-19T05:06:19;23.80;;;12.48;;
1412;SDS011;701;52.526;13.408;2023-03-19T05:08:45;21.10;;;11.90;;
1412;SDS011;701;52.526;13.408;2023-03-19T05:11:14;24.13;;;11.88;;
1412;SDS011;701;52.526;13.408;2023-03-19T05:13:55;24.13;;;11.77;;
1412;SDS011;701;52.526;13.408;2023-03-19T05:16:21;21.42;;;12.07;;
1412;SDS011;701;52.526;13.408;2023-03-19T05:18:47;23.93;;;11.70;;
1412;SDS011;701;52.526;13.408;2023-03-19T05:21:13;22.65;;;12.32;;
1412;SDS011;701;52.526;13.408;2023-03-19T05:23:42;26.45;;;13.15;;
1412;SDS011;701;52.526;13.408;2023-03-19T05:26:08;22.52;;;12.35;;
1412;SDS011;701;52.526;13.408;2023-03-19T05:29:00;24.40;;;12.68;;
1412;SDS011;701;52.526;13.408;2023-03-19T05:31:37;22.77;;;13.20;;
1412;SDS011;701;52.526;13.408;2023-03-19T05:34:03;23.20;;;12.85;;
1412;SDS011;701;52.526;13.408;2023-03-19T05:36:31;23.52;;;12.60;;
1412;SDS011;701;52.526;13.408;2023-03-19T05:39:06;25.75;;;12.48;;
1412;SDS011;701;52.526;13.408;2023-03-19T05:41:35;21.57;;;12.90;;
1412;SDS011;701;52.526;13.408;2023-03-19T05:44:04;23.63;;;12.32;;
1412;SDS011;701;52.526;13.408;2023-03-19T05:46:46;22.63;;;12.73;;
1412;SDS011;701;52.526;13.408;2023-03-19T05:49:13;20.95;;;12.30;;
1412;SDS011;701;52.526;13.408;2023-03-19T05:51:39;23.33;;;12.10;;
1412;SDS011;701;52.526;13.408;2023-03-19T05:54:07;20.97;;;11.73;;
1412;SDS011;701;52.526;13.408;2023-03-19T05:56:44;21.85;;;11.15;;
1412;SDS011;701;52.526;13.408;2023-03-19T05:59:25;21.73;;;11.90;;
1412;SDS011;701;52.526;13.408;2023-03-19T06:02:05;22.30;;;10.52;;
1412;SDS011;701;52.526;13.408;2023-03-19T06:04:31;21.02;;;10.88;;
1412;SDS011;701;52.526;13.408;2023-03-19T06:06:57;24.37;;;11.63;;
1412;SDS011;701;52.526;13.408;2023-03-19T06:09:23;18.55;;;10.85;;
1412;SDS011;701;52.526;13.408;2023-03-19T06:11:53;18.48;;;10.52;;
1412;SDS011;701;52.526;13.408;2023-03-19T06:14:42;19.02;;;10.05;;
1412;SDS011;701;52.526;13.408;2023-03-19T06:17:43;21.02;;;10.35;;
1412;SDS011;701;52.526;13.408;2023-03-19T06:20:10;20.35;;;9.38;;
1412;SDS011;701;52.526;13.408;2023-03-19T06:22:37;18.02;;;9.60;;
1412;SDS011;701;52.526;13.408;2023-03-19T06:25:04;19.08;;;10.13;;
1412;SDS011;701;52.526;13.408;2023-03-19T06:27:34;17.75;;;9.82;;
1412;SDS011;701;52.526;13.408;2023-03-19T06:30:14;16.23;;;9.35;;
1412;SDS011;701;52.526;13.408;2023-03-19T06:32:40;18.75;;;9.52;;
1412;SDS011;701;52.526;13.408;2023-03-19T06:35:09;16.08;;;8.60;;
1412;SDS011;701;52.526;13.408;2023-03-19T06:37:35;14.90;;;8.27;;
1412;SDS011;701;52.526;13.408;2023-03-19T06:40:02;14.82;;;7.82;;
1412;SDS011;701;52.526;13.408;2023-03-19T06:42:29;16.15;;;8.80;;
1412;SDS011;701;52.526;13.408;2023-03-19T06:44:55;13.95;;;8.48;;
1412;SDS011;701;52.526;13.408;2023-03-19T06:47:21;14.80;;;8.65;;
1412;SDS011;701;52.526;13.408;2023-03-19T06:49:47;18.67;;;10.50;;
1412;SDS011;701;52.526;13.408;2023-03-19T06:52:13;20.88;;;11.65;;
1412;SDS011;701;52.526;13.408;2023-03-19T06:54:39;21.10;;;11.93;;
1412;SDS011;701;52.526;13.408;2023-03-19T06:57:04;20.65;;;11.43;;
1412;SDS011;701;52.526;13.408;2023-03-19T06:59:30;20.50;;;11.85;;
1412;SDS011;701;52.526;13.408;2023-03-19T07:01:56;22.87;;;11.63;;
1412;SDS011;701;52.526;13.408;2023-03-19T07:04:21;22.35;;;11.68;;
1412;SDS011;701;52.526;13.408;2023-03-19T07:06:47;18.70;;;10.93;;
1412;SDS011;701;52.526;13.408;2023-03-19T07:09:13;22.23;;;11.82;;
1412;SDS011;701;52.526;13.408;2023-03-19T07:11:39;20.08;;;11.88;;
1412;SDS011;701;52.526;13.408;2023-03-19T07:14:05;25.50;;;11.60;;
1412;SDS011;701;52.526;13.408;2023-03-19T07:16:31;21.30;;;12.17;;
1412;SDS011;701;52.526;13.408;2023-03-19T07:18:58;25.17;;;12.23;;
1412;SDS011;701;52.526;13.408;2023-03-19T07:21:25;23.17;;;12.23;;
1412;SDS011;701;52.526;13.408;2023-03-19T07:23:51;20.13;;;11.43;;
1412;SDS011;701;52.526;13.408;2023-03-19T07:26:18;20.48;;;11.85;;
1412;SDS011;701;52.526;13.408;2023-03-19T07:28:45;21.00;;;11.40;;
1412;SDS011;701;52.526;13.408;2023-03-19T07:31:13;19.95;;;11.82;;
1412;SDS011;701;52.526;13.408;2023-03-19T07:33:41;23.80;;;11.75;;
1412;SDS011;701;52.526;13.408;2023-03-19T07:36:08;22.80;;;12.55;;
1412;SDS011;701;52.526;13.408;2023-03-19T07:38:35;26.40;;;12.82;;
1412;SDS011;701;52.526;13.408;2023-03-19T07:41:01;23.87;;;12.60;;
1412;SDS011;701;52.526;13.408;2023-03-19T07:43:29;27.42;;;12.88;;
1412;SDS011;701;52.526;13.408;2023-03-19T07:45:56;23.83;;;14.15;;
1412;SDS011;701;52.526;13.408;2023-03-19T07:48:23;23.70;;;13.20;;
1412;SDS011;701;52.526;13.408;2023-03-19T07:50:50;24.08;;;13.57;;
1412;SDS011;701;52.526;13.408;2023-03-19T07:53:17;22.10;;;12.77;;
1412;SDS011;701;52.526;13.408;2023-03-19T07:55:43;24.58;;;12.88;;
1412;SDS011;701;52.526;13.408;2023-03-19T07:58:09;26.13;;;12.45;;
1412;SDS011;701;52.526;13.408;2023-03-19T08:00:35;20.45;;;12.68;;
1412;SDS011;701;52.526;13.408;2023-03-19T08:03:01;23.23;;;12.00;;
1412;SDS011;701;52.526;13.408;2023-03-19T08:05:27;28.98;;;12.82;;
1412;SDS011;701;52.526;13.408;2023-03-19T08:07:53;20.43;;;11.47;;
1412;SDS011;701;52.526;13.408;2023-03-19T08:10:18;22.00;;;12.73;;
1412;SDS011;701;52.526;13.408;2023-03-19T08:12:44;25.88;;;12.63;;
1412;SDS011;701;52.526;13.408;2023-03-19T08:15:10;23.33;;;12.70;;
1412;SDS011;701;52.526;13.408;2023-03-19T08:17:36;21.60;;;12.60;;
1412;SDS011;701;52.526;13.408;2023-03-19T08:20:04;23.00;;;13.15;;
1412;SDS011;701;52.526;13.408;2023-03-19T08:22:35;25.77;;;13.02;;
1412;SDS011;701;52.526;13.408;2023-03-19T08:25:02;22.55;;;12.20;;
1412;SDS011;701;52.526;13.408;2023-03-19T08:27:29;22.17;;;12.73;;
1412;SDS011;701;52.526;13.408;2023-03-19T08:29:55;21.38;;;12.30;;
1412;SDS011;701;52.526;13.408;2023-03-19T08:32:22;19.48;;;11.40;;
1412;SDS011;701;52.526;13.408;2023-03-19T08:34:48;25.67;;;12.57;;
1412;SDS011;701;52.526;13.408;2023-03-19T08:37:15;22.05;;;11.93;;
1412;SDS011;701;52.526;13.408;2023-03-19T08:39:41;22.02;;;12.25;;
1412;SDS011;701;52.526;13.408;2023-03-19T08:42:07;21.88;;;12.13;;
1412;SDS011;701;52.526;13.408;2023-03-19T08:44:34;23.83;;;11.70;;
1412;SDS011;701;52.526;13.408;2023-03-19T08:47:01;19.65;;;11.48;;
1412;SDS011;701;52.526;13.408;2023-03-19T08:49:28;25.08;;;11.60;;
1412;SDS011;701;52.526;13.408;2023-03-19T08:51:55;25.52;;;13.05;;
1412;SDS011;701;52.526;13.408;2023-03-19T08:54:21;19.17;;;11.32;;
1412;SDS011;701;52.526;13.408;2023-03-19T08:56:48;22.45;;;11.75;;
1412;SDS011;701;52.526;13.408;2023-03-19T08:59:15;22.30;;;12.25;;
1412;SDS011;701;52.526;13.408;2023-03-19T09:01:41;21.23;;;11.95;;
1412;SDS011;701;52.526;13.408;2023-03-19T09:04:08;20.63;;;12.32;;
1412;SDS011;701;52.526;13.408;2023-03-19T09:06:34;23.08;;;11.52;;
1412;SDS011;701;52.526;13.408;2023-03-19T09:09:00;20.40;;;12.35;;
1412;SDS011;701;52.526;13.408;2023-03-19T09:11:25;24.00;;;13.82;;
1412;SDS011;701;52.526;13.408;2023-03-19T09:13:51;26.33;;;13.73;;
1412;SDS011;701;52.526;13.408;2023-03-19T09:16:17;23.48;;;14.02;;
1412;SDS011;701;52.526;13.408;2023-03-19T09:18:43;22.80;;;14.20;;
1412;SDS011;701;52.526;13.408;2023-03-19T09:21:10;26.70;;;14.18;;
1412;SDS011;701;52.526;13.408;2023-03-19T09:23:36;25.42;;;15.10;;
1412;SDS011;701;52.526;13.408;2023-03-19T09:26:02;27.20;;;14.80;;
1412;SDS011;701;52.526;13.408;2023-03-19T09:28:27;27.58;;;15.80;;
1412;SDS011;701;52.526;13.408;2023-03-19T09:30:53;29.15;;;16.67;;
1412;SDS011;701;52.526;13.408;2023-03-19T09:33:20;29.00;;;15.50;;
1412;SDS011;701;52.526;13.408;2023-03-19T09:35:49;26.70;;;14.82;;
1412;SDS011;701;52.526;13.408;2023-03-19T09:38:18;27.05;;;15.30;;
1412;SDS011;701;52.526;13.408;2023-03-19T09:40:46;26.92;;;15.40;;
1412;SDS011;701;52.526;13.408;2023-03-19T09:43:33;24.57;;;14.47;;
1412;SDS011;701;52.526;13.408;2023-03-19T09:46:21;29.35;;;16.13;;
1412;SDS011;701;52.526;13.408;2023-03-19T09:48:57;30.05;;;16.90;;
1412;SDS011;701;52.526;13.408;2023-03-19T09:51:37;29.90;;;17.75;;
1412;SDS011;701;52.526;13.408;2023-03-19T09:54:56;32.78;;;19.02;;
1412;SDS011;701;52.526;13.408;2023-03-19T09:57:10;29.37;;;18.27;;
1412;SDS011;701;52.526;13.408;2023-03-19T09:59:38;29.75;;;17.02;;
1412;SDS011;701;52.526;13.408;2023-03-19T10:16:23;21.10;;;13.25;;
1412;SDS011;701;52.526;13.408;2023-03-19T10:18:51;20.75;;;12.50;;
1412;SDS011;701;52.526;13.408;2023-03-19T10:24:13;21.07;;;11.87;;
1412;SDS011;701;52.526;13.408;2023-03-19T10:26:45;18.92;;;11.90;;
1412;SDS011;701;52.526;13.408;2023-03-19T10:29:17;16.60;;;10.88;;
1412;SDS011;701;52.526;13.408;2023-03-19T10:37:03;19.20;;;11.07;;
1412;SDS011;701;52.526;13.408;2023-03-19T10:39:36;19.48;;;10.90;;
1412;SDS011;701;52.526;13.408;2023-03-19T10:45:16;17.27;;;11.52;;
1412;SDS011;701;52.526;13.408;2023-03-19T10:47:43;17.55;;;10.52;;
1412;SDS011;701;52.526;13.408;2023-03-19T10:50:16;18.87;;;10.07;;
1412;SDS011;701;52.526;13.408;2023-03-19T10:52:44;17.02;;;10.05;;
1412;SDS011;701;52.526;13.408;2023-03-19T10:55:22;17.25;;;10.45;;
1412;SDS011;701;52.526;13.408;2023-03-19T10:57:50;14.20;;;9.18;;
1412;SDS011;701;52.526;13.408;2023-03-19T11:00:31;16.70;;;8.98;;
1412;SDS011;701;52.526;13.408;2023-03-19T11:02:59;15.77;;;8.90;;
1412;SDS011;701;52.526;13.408;2023-03-19T11:05:31;16.15;;;9.20;;
1412;SDS011;701;52.526;13.408;2023-03-19T11:08:04;21.27;;;8.90;;
1412;SDS011;701;52.526;13.408;2023-03-19T11:10:44;17.73;;;8.80;;
1412;SDS011;701;52.526;13.408;2023-03-19T11:13:22;13.80;;;8.52;;
1412;SDS011;701;52.526;13.408;2023-03-19T11:15:51;13.77;;;8.30;;
1412;SDS011;701;52.526;13.408;2023-03-19T11:18:18;13.02;;;8.18;;
1412;SDS011;701;52.526;13.408;2023-03-19T11:20:48;15.30;;;9.50;;
1412;SDS011;701;52.526;13.408;2023-03-19T11:23:29;14.80;;;8.48;;
1412;SDS011;701;52.526;13.408;2023-03-19T11:26:02;14.13;;;8.77;;
1412;SDS011;701;52.526;13.408;2023-03-19T11:28:28;13.37;;;7.77;;
1412;SDS011;701;52.526;13.408;2023-03-19T11:36:07;11.80;;;7.60;;
1412;SDS011;701;52.526;13.408;2023-03-19T11:46:40;12.18;;;7.18;;
1412;SDS011;701;52.526;13.408;2023-03-19T11:54:43;11.70;;;7.00;;
1412;SDS011;701;52.526;13.408;2023-03-19T11:57:42;13.68;;;7.18;;
1412;SDS011;701;52.526;13.408;2023-03-19T12:00:45;12.63;;;7.00;;
1412;SDS011;701;52.526;13.408;2023-03-19T12:06:51;15.87;;;6.80;;
1412;SDS011;701;52.526;13.408;2023-03-19T12:08:58;11.73;;;6.63;;
1412;SDS011;701;52.526;13.408;2023-03-19T12:20:27;12.27;;;7.50;;
1412;SDS011;701;52.526;13.408;2023-03-19T12:28:14;11.75;;;6.82;;
1412;SDS011;701;52.526;13.408;2023-03-19T12:33:52;13.77;;;7.97;;
1412;SDS011;701;52.526;13.408;2023-03-19T12:36:36;13.35;;;7.85;;
1412;SDS011;701;52.526;13.408;2023-03-19T12:39:14;12.85;;;7.38;;
1412;SDS011;701;52.526;13.408;2023-03-19T12:41:45;12.65;;;7.50;;
1412;SDS011;701;52.526;13.408;2023-03-19T12:46:50;13.23;;;7.23;;
1412;SDS011;701;52.526;13.408;2023-03-19T12:49:28;12.68;;;8.40;;
1412;SDS011;701;52.526;13.408;2023-03-19T12:54:58;13.98;;;7.40;;
1412;SDS011;701;52.526;13.408;2023-03-19T12:57:57;13.98;;;7.97;;
1412;SDS011;701;52.526;13.408;2023-03-19T13:00:34;13.10;;;7.20;;
1412;SDS011;701;52.526;13.408;2023-03-19T13:03:13;13.75;;;7.28;;
1412;SDS011;701;52.526;13.408;2023-03-19T13:05:40;15.10;;;7.50;;
1412;SDS011;701;52.526;13.408;2023-03-19T13:10:55;12.55;;;7.38;;
1412;SDS011;701;52.526;13.408;2023-03-19T13:13:44;12.37;;;7.83;;
1412;SDS011;701;52.526;13.408;2023-03-19T13:22:18;13.65;;;7.50;;
1412;SDS011;701;52.526;13.408;2023-03-19T13:24:51;15.13;;;8.07;;
1412;SDS011;701;52.526;13.408;2023-03-19T13:27:32;13.70;;;7.80;;
1412;SDS011;701;52.526;13.408;2023-03-19T13:30:05;12.40;;;7.97;;
1412;SDS011;701;52.526;13.408;2023-03-19T13:40:45;13.67;;;7.53;;
1412;SDS011;701;52.526;13.408;2023-03-19T13:43:58;16.40;;;7.57;;
1412;SDS011;701;52.526;13.408;2023-03-19T13:53:53;14.93;;;7.60;;
1412;SDS011;701;52.526;13.408;2023-03-19T13:56:28;13.38;;;8.32;;
1412;SDS011;701;52.526;13.408;2023-03-19T14:01:44;12.90;;;7.47;;
1412;SDS011;701;52.526;13.408;2023-03-19T14:07:08;13.10;;;7.90;;
1412;SDS011;701;52.526;13.408;2023-03-19T14:09:42;17.00;;;7.95;;
1412;SDS011;701;52.526;13.408;2023-03-19T14:14:41;16.08;;;8.18;;
1412;SDS011;701;52.526;13.408;2023-03-19T14:17:20;12.35;;;7.85;;
1412;SDS011;701;52.526;13.408;2023-03-19T14:19:51;14.40;;;7.83;;
1412;SDS011;701;52.526;13.408;2023-03-19T14:22:37;12.65;;;8.02;;
1412;SDS011;701;52.526;13.408;2023-03-19T14:25:22;15.75;;;9.18;;
1412;SDS011;701;52.526;13.408;2023-03-19T14:27:54;16.10;;;9.25;;
1412;SDS011;701;52.526;13.408;2023-03-19T14:32:54;14.10;;;7.90;;
1412;SDS011;701;52.526;13.408;2023-03-19T14:35:22;14.60;;;8.55;;
1412;SDS011;701;52.526;13.408;2023-03-19T14:37:51;16.83;;;8.55;;
1412;SDS011;701;52.526;13.408;2023-03-19T14:40:22;18.15;;;8.55;;
1412;SDS011;701;52.526;13.408;2023-03-19T14:43:02;14.30;;;8.27;;
1412;SDS011;701;52.526;13.408;2023-03-19T14:54:20;14.07;;;6.13;;
1412;SDS011;701;52.526;13.408;2023-03-19T14:57:04;14.05;;;5.97;;
1412;SDS011;701;52.526;13.408;2023-03-19T14:59:50;13.00;;;6.00;;
1412;SDS011;701;52.526;13.408;2023-03-19T15:04:56;10.85;;;5.63;;
1412;SDS011;701;52.526;13.408;2023-03-19T15:07:30;11.38;;;6.03;;
1412;SDS011;701;52.526;13.408;2023-03-19T15:09:58;11.23;;;6.00;;
1412;SDS011;701;52.526;13.408;2023-03-19T15:15:20;10.48;;;6.45;;
1412;SDS011;701;52.526;13.408;2023-03-19T15:18:05;15.85;;;5.97;;
1412;SDS011;701;52.526;13.408;2023-03-19T15:20:43;11.13;;;6.07;;
1412;SDS011;701;52.526;13.408;2023-03-19T15:23:17;12.27;;;6.30;;
1412;SDS011;701;52.526;13.408;2023-03-19T15:28:13;11.98;;;6.55;;
1412;SDS011;701;52.526;13.408;2023-03-19T15:30:41;10.68;;;6.00;;
1412;SDS011;701;52.526;13.408;2023-03-19T15:33:17;11.35;;;6.60;;
1412;SDS011;701;52.526;13.408;2023-03-19T15:35:47;11.77;;;6.47;;
1412;SDS011;701;52.526;13.408;2023-03-19T15:38:16;10.87;;;6.60;;
1412;SDS011;701;52.526;13.408;2023-03-19T15:40:43;12.18;;;6.55;;
1412;SDS011;701;52.526;13.408;2023-03-19T15:43:10;13.60;;;6.20;;
1412;SDS011;701;52.526;13.408;2023-03-19T15:45:37;10.75;;;6.20;;
1412;SDS011;701;52.526;13.408;2023-03-19T15:48:10;15.32;;;6.30;;
1412;SDS011;701;52.526;13.408;2023-03-19T15:50:46;13.43;;;6.70;;
1412;SDS011;701;52.526;13.408;2023-03-19T15:53:19;17.52;;;6.60;;
1412;SDS011;701;52.526;13.408;2023-03-19T15:55:49;11.88;;;6.10;;
1412;SDS011;701;52.526;13.408;2023-03-19T15:58:23;14.50;;;6.95;;
1412;SDS011;701;52.526;13.408;2023-03-19T16:00:52;14.55;;;6.20;;
1412;SDS011;701;52.526;13.408;2023-03-19T16:03:40;15.27;;;6.50;;
1412;SDS011;701;52.526;13.408;2023-03-19T16:06:51;14.60;;;7.22;;
1412;SDS011;701;52.526;13.408;2023-03-19T16:11:58;11.98;;;6.63;;
1412;SDS011;701;52.526;13.408;2023-03-19T16:14:37;15.68;;;8.07;;
1412;SDS011;701;52.526;13.408;2023-03-19T16:17:12;15.13;;;7.40;;
1412;SDS011;701;52.526;13.408;2023-03-19T16:19:49;13.85;;;7.35;;
1412;SDS011;701;52.526;13.408;2023-03-19T16:22:24;13.00;;;7.10;;
1412;SDS011;701;52.526;13.408;2023-03-19T16:24:54;16.48;;;7.63;;
1412;SDS011;701;52.526;13.408;2023-03-19T16:27:24;14.60;;;7.90;;
1412;SDS011;701;52.526;13.408;2023-03-19T16:29:59;14.83;;;8.30;;
1412;SDS011;701;52.526;13.408;2023-03-19T16:32:26;13.82;;;7.60;;
1412;SDS011;701;52.526;13.408;2023-03-19T16:35:08;14.90;;;8.45;;
1412;SDS011;701;52.526;13.408;2023-03-19T16:42:37;15.63;;;7.93;;
1412;SDS011;701;52.526;13.408;2023-03-19T16:47:41;12.80;;;7.63;;
1412;SDS011;701;52.526;13.408;2023-03-19T16:50:07;18.30;;;9.00;;
1412;SDS011;701;52.526;13.408;2023-03-19T16:52:34;14.70;;;7.77;;
1412;SDS011;701;52.526;13.408;2023-03-19T16:55:01;16.05;;;8.32;;
1412;SDS011;701;52.526;13.408;2023-03-19T16:57:28;14.43;;;8.43;;
1412;SDS011;701;52.526;13.408;2023-03-19T16:59:54;14.65;;;8.07;;
1412;SDS011;701;52.526;13.408;2023-03-19T17:02:20;14.73;;;8.70;;
1412;SDS011;701;52.526;13.408;2023-03-19T17:04:46;17.13;;;8.10;;
1412;SDS011;701;52.526;13.408;2023-03-19T17:07:11;14.50;;;8.10;;
1412;SDS011;701;52.526;13.408;2023-03-19T17:09:37;12.50;;;7.47;;
1412;SDS011;701;52.526;13.408;2023-03-19T17:12:04;21.17;;;8.00;;
1412;SDS011;701;52.526;13.408;2023-03-19T17:14:32;16.70;;;8.15;;
1412;SDS011;701;52.526;13.408;2023-03-19T17:16:58;14.55;;;8.48;;
1412;SDS011;701;52.526;13.408;2023-03-19T17:19:25;18.27;;;8.33;;
1412;SDS011;701;52.526;13.408;2023-03-19T17:21:55;18.35;;;10.10;;
1412;SDS011;701;52.526;13.408;2023-03-19T17:24:26;16.98;;;9.00;;
1412;SDS011;701;52.526;13.408;2023-03-19T17:26:55;17.88;;;9.70;;
1412;SDS011;701;52.526;13.408;2023-03-19T17:29:22;17.23;;;10.02;;
1412;SDS011;701;52.526;13.408;2023-03-19T17:31:49;16.10;;;8.83;;
1412;SDS011;701;52.526;13.408;2023-03-19T17:34:18;17.77;;;9.82;;